sensor_id;sensor_type;location;lat;lon;timestamp;pressure;altitude;pressure_sealevel;temperature;humidity
6094;BME280;19964;42.060;24.700;2023-03-25T00:01:48;97268.50;;;7.66;79.47
6094;BME280;19964;42.060;24.700;2023-03-25T00:04:15;97266.78;;;7.60;79.45
6094;BME280;19964;42.060;24.700;2023-03-25T00:06:43;97260.47;;;7.56;79.73
6094;BME280;19964;42.060;24.700;2023-03-25T00:09:11;97258.97;;;7.67;79.38
6094;BME280;19964;42.060;24.700;2023-03-25T00:11:38;97262.38;;;7.85;78.61
6094;BME280;19964;42.060;24.700;2023-03-25T00:14:05;97261.88;;;7.95;77.89
6094;BME280;19964;42.060;24.700;2023-03-25T00:16:32;97269.69;;;7.88;78.64
6094;BME280;19964;42.060;24.700;2023-03-25T00:18:59;97245.88;;;7.68;78.66
6094;BME280;19964;42.060;24.700;2023-03-25T00:21:26;97264.69;;;7.93;78.15
6094;BME280;19964;42.060;24.700;2023-03-25T00:23:54;97262.50;;;7.90;78.39
6094;BME280;19964;42.060;24.700;2023-03-25T00:26:22;97167.53;;;7.27;77.99
6094;BME280;19964;42.060;24.700;2023-03-25T00:28:48;97270.59;;;7.76;78.73
6094;BME280;19964;42.060;24.700;2023-03-25T00:31:15;97175.41;;;7.13;79.34
6094;BME280;19964;42.060;24.700;2023-03-25T00:33:42;97260.59;;;7.61;79.72
6094;BME280;19964;42.060;24.700;2023-03-25T00:36:10;97260.97;;;7.65;79.59
6094;BME280;19964;42.060;24.700;2023-03-25T00:38:38;97250.38;;;7.55;80.20
6094;BME280;19964;42.060;24.700;2023-03-25T00:41:13;97248.41;;;7.50;80.07
6094;BME280;19964;42.060;24.700;2023-03-25T00:43:43;97229.69;;;7.37;81.27
6094;BME280;19964;42.060;24.700;2023-03-25T00:46:10;97235.84;;;7.36;80.77
6094;BME280;19964;42.060;24.700;2023-03-25T00:48:37;97235.09;;;7.29;81.78
6094;BME280;19964;42.060;24.700;2023-03-25T00:51:06;97228.53;;;7.08;83.11
6094;BME280;19964;42.060;24.700;2023-03-25T00:53:35;97237.56;;;7.17;83.07
6094;BME280;19964;42.060;24.700;2023-03-25T00:56:02;97229.38;;;7.02;83.63
6094;BME280;19964;42.060;24.700;2023-03-25T00:58:29;97223.06;;;6.98;83.86
6094;BME280;19964;42.060;24.700;2023-03-25T01:00:57;97224.72;;;7.10;83.86
6094;BME280;19964;42.060;24.700;2023-03-25T01:03:25;97231.25;;;7.13;83.21
6094;BME280;19964;42.060;24.700;2023-03-25T01:05:53;97201.44;;;6.99;83.42
6094;BME280;19964;42.060;24.700;2023-03-25T01:08:21;97225.38;;;7.06;83.47
6094;BME280;19964;42.060;24.700;2023-03-25T01:10:51;97194.34;;;6.94;83.55
6094;BME280;19964;42.060;24.700;2023-03-25T01:13:19;97219.22;;;7.07;83.32
6094;BME280;19964;42.060;24.700;2023-03-25T01:15:46;97232.47;;;7.10;83.66
6094;BME280;19964;42.060;24.700;2023-03-25T01:18:14;97232.25;;;7.12;83.59
6094;BME280;19964;42.060;24.700;2023-03-25T01:20:41;97226.22;;;7.00;84.56
6094;BME280;19964;42.060;24.700;2023-03-25T01:23:08;97212.06;;;6.84;85.44
6094;BME280;19964;42.060;24.700;2023-03-25T01:25:36;97204.78;;;6.75;85.32
6094;BME280;19964;42.060;24.700;2023-03-25T01:28:03;97213.25;;;6.82;85.76
6094;BME280;19964;42.060;24.700;2023-03-25T01:30:31;97202.91;;;6.88;85.88
6094;BME280;19964;42.060;24.700;2023-03-25T01:32:58;97190.47;;;6.79;86.03
6094;BME280;19964;42.060;24.700;2023-03-25T01:35:26;97201.69;;;6.91;85.95
6094;BME280;19964;42.060;24.700;2023-03-25T01:37:53;97183.78;;;6.78;86.58
6094;BME280;19964;42.060;24.700;2023-03-25T01:40:21;97188.09;;;6.84;86.72
6094;BME280;19964;42.060;24.700;2023-03-25T01:42:49;97184.22;;;6.68;87.09
6094;BME280;19964;42.060;24.700;2023-03-25T01:45:23;97181.78;;;6.80;87.43
6094;BME280;19964;42.060;24.700;2023-03-25T01:47:55;97179.56;;;6.83;86.88
6094;BME280;19964;42.060;24.700;2023-03-25T01:50:27;97180.50;;;6.89;86.31
6094;BME280;19964;42.060;24.700;2023-03-25T01:52:55;97183.88;;;6.89;86.71
6094;BME280;19964;42.060;24.700;2023-03-25T01:55:23;97182.25;;;6.95;86.78
6094;BME280;19964;42.060;24.700;2023-03-25T01:57:53;97174.84;;;7.05;86.21
6094;BME280;19964;42.060;24.700;2023-03-25T02:00:24;97177.38;;;7.11;85.36
6094;BME280;19964;42.060;24.700;2023-03-25T02:02:54;97157.44;;;7.00;84.97
6094;BME280;19964;42.060;24.700;2023-03-25T02:05:32;97177.56;;;7.10;84.70
6094;BME280;19964;42.060;24.700;2023-03-25T02:08:04;97138.81;;;6.80;85.19
6094;BME280;19964;42.060;24.700;2023-03-25T02:10:33;97160.47;;;6.97;85.92
6094;BME280;19964;42.060;24.700;2023-03-25T02:13:01;97149.88;;;6.81;86.56
6094;BME280;19964;42.060;24.700;2023-03-25T02:15:35;97152.84;;;6.84;86.83
6094;BME280;19964;42.060;24.700;2023-03-25T02:18:17;97135.13;;;6.70;86.96
6094;BME280;19964;42.060;24.700;2023-03-25T02:21:16;97147.78;;;6.71;87.36
6094;BME280;19964;42.060;24.700;2023-03-25T02:24:03;97113.47;;;6.53;87.56
6094;BME280;19964;42.060;24.700;2023-03-25T02:29:56;97137.31;;;6.66;87.61
6094;BME280;19964;42.060;24.700;2023-03-25T02:32:48;97159.50;;;6.92;86.96
6094;BME280;19964;42.060;24.700;2023-03-25T02:35:35;97147.88;;;6.58;88.58
6094;BME280;19964;42.060;24.700;2023-03-25T02:38:17;97139.88;;;6.73;88.48
6094;BME280;19964;42.060;24.700;2023-03-25T02:40:49;97137.47;;;6.71;88.10
6094;BME280;19964;42.060;24.700;2023-03-25T02:43:23;97082.00;;;6.26;88.79
6094;BME280;19964;42.060;24.700;2023-03-25T02:45:55;97154.31;;;6.67;88.71
6094;BME280;19964;42.060;24.700;2023-03-25T02:48:29;97146.00;;;6.72;89.04
6094;BME280;19964;42.060;24.700;2023-03-25T02:51:01;97127.50;;;6.57;88.80
6094;BME280;19964;42.060;24.700;2023-03-25T02:53:36;97143.72;;;6.88;88.78
6094;BME280;19964;42.060;24.700;2023-03-25T02:56:07;97144.91;;;6.86;88.15
6094;BME280;19964;42.060;24.700;2023-03-25T02:58:38;97144.09;;;6.85;88.03
6094;BME280;19964;42.060;24.700;2023-03-25T03:01:06;97135.97;;;6.88;88.57
6094;BME280;19964;42.060;24.700;2023-03-25T03:03:34;97130.63;;;6.90;87.87
6094;BME280;19964;42.060;24.700;2023-03-25T03:06:02;97116.69;;;6.73;88.72
6094;BME280;19964;42.060;24.700;2023-03-25T03:08:42;97117.38;;;6.86;88.46
6094;BME280;19964;42.060;24.700;2023-03-25T03:11:15;97122.47;;;6.93;88.35
6094;BME280;19964;42.060;24.700;2023-03-25T03:14:13;97111.00;;;6.89;88.50
6094;BME280;19964;42.060;24.700;2023-03-25T03:16:48;97106.13;;;6.81;89.00
6094;BME280;19964;42.060;24.700;2023-03-25T03:19:32;97100.53;;;6.90;88.94
6094;BME280;19964;42.060;24.700;2023-03-25T03:22:09;97082.22;;;6.74;88.11
6094;BME280;19964;42.060;24.700;2023-03-25T03:24:43;97106.16;;;6.99;88.41
6094;BME280;19964;42.060;24.700;2023-03-25T03:27:14;97107.06;;;7.11;87.70
6094;BME280;19964;42.060;24.700;2023-03-25T03:29:52;97099.78;;;7.08;87.26
6094;BME280;19964;42.060;24.700;2023-03-25T03:32:27;97108.50;;;7.25;86.60
6094;BME280;19964;42.060;24.700;2023-03-25T03:34:57;97087.56;;;6.97;86.66
6094;BME280;19964;42.060;24.700;2023-03-25T03:37:28;97106.16;;;6.99;87.74
6094;BME280;19964;42.060;24.700;2023-03-25T03:40:00;97105.19;;;6.75;89.30
6094;BME280;19964;42.060;24.700;2023-03-25T03:42:31;97101.84;;;6.75;89.84
6094;BME280;19964;42.060;24.700;2023-03-25T03:45:02;97109.59;;;6.93;89.62
6094;BME280;19964;42.060;24.700;2023-03-25T03:47:36;97100.09;;;6.93;88.70
6094;BME280;19964;42.060;24.700;2023-03-25T03:50:08;97110.63;;;6.85;89.30
6094;BME280;19964;42.060;24.700;2023-03-25T03:52:39;97118.69;;;6.95;88.66
6094;BME280;19964;42.060;24.700;2023-03-25T03:55:10;97121.19;;;6.77;90.27
6094;BME280;19964;42.060;24.700;2023-03-25T03:57:41;97111.06;;;6.82;89.79
6094;BME280;19964;42.060;24.700;2023-03-25T04:00:14;97116.94;;;6.89;89.59
6094;BME280;19964;42.060;24.700;2023-03-25T04:02:45;97074.63;;;6.61;89.46
6094;BME280;19964;42.060;24.700;2023-03-25T04:05:15;97106.06;;;6.87;90.18
6094;BME280;19964;42.060;24.700;2023-03-25T04:07:46;97100.38;;;6.79;90.58
6094;BME280;19964;42.060;24.700;2023-03-25T04:10:25;97102.22;;;6.72;91.38
6094;BME280;19964;42.060;24.700;2023-03-25T04:12:57;97105.59;;;6.72;91.92
6094;BME280;19964;42.060;24.700;2023-03-25T04:15:26;97102.97;;;6.79;91.58
6094;BME280;19964;42.060;24.700;2023-03-25T04:17:53;97103.63;;;6.74;91.98
6094;BME280;19964;42.060;24.700;2023-03-25T04:20:23;97090.75;;;6.74;91.40
6094;BME280;19964;42.060;24.700;2023-03-25T04:22:58;97104.91;;;6.83;91.27
6094;BME280;19964;42.060;24.700;2023-03-25T04:25:26;97106.22;;;6.92;90.82
6094;BME280;19964;42.060;24.700;2023-03-25T04:27:55;97121.84;;;6.97;90.43
6094;BME280;19964;42.060;24.700;2023-03-25T04:30:24;97118.25;;;6.98;90.46
6094;BME280;19964;42.060;24.700;2023-03-25T04:32:51;97116.56;;;7.10;90.46
6094;BME280;19964;42.060;24.700;2023-03-25T04:35:18;97112.59;;;7.33;89.52
6094;BME280;19964;42.060;24.700;2023-03-25T04:37:46;97121.69;;;7.53;87.75
6094;BME280;19964;42.060;24.700;2023-03-25T04:40:14;97123.69;;;7.69;87.13
6094;BME280;19964;42.060;24.700;2023-03-25T04:42:44;97121.19;;;7.99;85.59
6094;BME280;19964;42.060;24.700;2023-03-25T04:45:11;97123.72;;;8.17;84.43
6094;BME280;19964;42.060;24.700;2023-03-25T04:47:41;97104.31;;;8.33;82.92
6094;BME280;19964;42.060;24.700;2023-03-25T04:50:18;97082.47;;;8.58;81.68
6094;BME280;19964;42.060;24.700;2023-03-25T04:52:46;97111.28;;;9.20;79.63
6094;BME280;19964;42.060;24.700;2023-03-25T04:55:13;97126.78;;;9.43;78.49
6094;BME280;19964;42.060;24.700;2023-03-25T04:57:44;97130.69;;;9.68;76.72
6094;BME280;19964;42.060;24.700;2023-03-25T05:00:13;97126.97;;;10.16;75.45
6094;BME280;19964;42.060;24.700;2023-03-25T05:02:43;97139.50;;;10.80;73.08
6094;BME280;19964;42.060;24.700;2023-03-25T05:05:14;97136.50;;;10.71;71.95
6094;BME280;19964;42.060;24.700;2023-03-25T05:07:43;97138.72;;;10.96;71.59
6094;BME280;19964;42.060;24.700;2023-03-25T05:10:11;97128.91;;;11.70;69.41
6094;BME280;19964;42.060;24.700;2023-03-25T05:12:38;97119.44;;;12.02;67.84
6094;BME280;19964;42.060;24.700;2023-03-25T05:15:08;97126.63;;;12.43;66.29
6094;BME280;19964;42.060;24.700;2023-03-25T05:17:36;97102.31;;;12.86;65.26
6094;BME280;19964;42.060;24.700;2023-03-25T05:20:04;97130.88;;;13.49;62.52
6094;BME280;19964;42.060;24.700;2023-03-25T05:22:32;97133.69;;;13.43;61.92
6094;BME280;19964;42.060;24.700;2023-03-25T05:24:59;97127.94;;;13.35;61.76
6094;BME280;19964;42.060;24.700;2023-03-25T05:27:28;97125.28;;;13.25;62.89
6094;BME280;19964;42.060;24.700;2023-03-25T05:29:55;97102.91;;;13.81;61.05
6094;BME280;19964;42.060;24.700;2023-03-25T05:32:25;97130.75;;;14.48;59.42
6094;BME280;19964;42.060;24.700;2023-03-25T05:34:54;97120.63;;;14.86;58.89
6094;BME280;19964;42.060;24.700;2023-03-25T05:37:21;97136.78;;;15.29;56.76
6094;BME280;19964;42.060;24.700;2023-03-25T05:39:48;97141.44;;;15.67;55.65
6094;BME280;19964;42.060;24.700;2023-03-25T05:42:16;97130.34;;;16.05;55.49
6094;BME280;19964;42.060;24.700;2023-03-25T05:44:43;97133.56;;;16.41;52.51
6094;BME280;19964;42.060;24.700;2023-03-25T05:47:15;97135.63;;;16.54;52.59
6094;BME280;19964;42.060;24.700;2023-03-25T05:49:46;97149.75;;;16.48;50.86
6094;BME280;19964;42.060;24.700;2023-03-25T05:52:13;97136.47;;;16.34;51.77
6094;BME280;19964;42.060;24.700;2023-03-25T05:54:41;97109.84;;;16.27;50.61
6094;BME280;19964;42.060;24.700;2023-03-25T05:57:10;97133.34;;;16.76;50.52
6094;BME280;19964;42.060;24.700;2023-03-25T05:59:37;97135.44;;;16.79;49.76
6094;BME280;19964;42.060;24.700;2023-03-25T06:02:05;97134.28;;;17.24;50.13
6094;BME280;19964;42.060;24.700;2023-03-25T06:04:33;97123.44;;;17.64;49.44
6094;BME280;19964;42.060;24.700;2023-03-25T06:07:07;97125.59;;;17.28;49.17
6094;BME280;19964;42.060;24.700;2023-03-25T06:09:40;97132.63;;;17.33;50.12
6094;BME280;19964;42.060;24.700;2023-03-25T06:12:11;97129.41;;;16.78;49.61
6094;BME280;19964;42.060;24.700;2023-03-25T06:14:38;97125.28;;;15.40;52.83
6094;BME280;19964;42.060;24.700;2023-03-25T06:17:08;97076.78;;;15.13;53.28
6094;BME280;19964;42.060;24.700;2023-03-25T06:19:35;97134.69;;;15.51;52.28
6094;BME280;19964;42.060;24.700;2023-03-25T06:22:04;97130.50;;;15.30;54.99
6094;BME280;19964;42.060;24.700;2023-03-25T06:24:35;97135.22;;;15.23;53.82
6094;BME280;19964;42.060;24.700;2023-03-25T06:27:02;97135.22;;;15.33;53.23
6094;BME280;19964;42.060;24.700;2023-03-25T06:29:31;97137.69;;;16.03;53.28
6094;BME280;19964;42.060;24.700;2023-03-25T06:31:58;97139.66;;;16.26;52.89
6094;BME280;19964;42.060;24.700;2023-03-25T06:34:25;97123.78;;;16.08;53.23
6094;BME280;19964;42.060;24.700;2023-03-25T06:36:52;97134.59;;;16.50;53.12
6094;BME280;19964;42.060;24.700;2023-03-25T06:39:19;97132.94;;;16.98;51.13
6094;BME280;19964;42.060;24.700;2023-03-25T06:41:47;97135.69;;;17.40;49.74
6094;BME280;19964;42.060;24.700;2023-03-25T06:44:14;97126.47;;;17.76;48.89
6094;BME280;19964;42.060;24.700;2023-03-25T06:46:41;97132.28;;;18.15;48.52
6094;BME280;19964;42.060;24.700;2023-03-25T06:49:08;97133.91;;;18.30;47.56
6094;BME280;19964;42.060;24.700;2023-03-25T06:51:35;97127.66;;;18.26;47.34
6094;BME280;19964;42.060;24.700;2023-03-25T06:54:02;97094.50;;;17.98;47.76
6094;BME280;19964;42.060;24.700;2023-03-25T06:56:29;97129.09;;;17.95;48.76
6094;BME280;19964;42.060;24.700;2023-03-25T06:58:57;97129.81;;;16.96;50.97
6094;BME280;19964;42.060;24.700;2023-03-25T07:01:24;97135.50;;;16.20;52.36
6094;BME280;19964;42.060;24.700;2023-03-25T07:03:51;97128.81;;;15.99;54.97
6094;BME280;19964;42.060;24.700;2023-03-25T07:06:20;97108.94;;;16.90;51.68
6094;BME280;19964;42.060;24.700;2023-03-25T07:08:48;97129.78;;;16.62;51.63
6094;BME280;19964;42.060;24.700;2023-03-25T07:11:16;97127.06;;;17.11;52.51
6094;BME280;19964;42.060;24.700;2023-03-25T07:13:44;97126.03;;;18.11;50.96
6094;BME280;19964;42.060;24.700;2023-03-25T07:16:13;97131.63;;;18.05;50.38
6094;BME280;19964;42.060;24.700;2023-03-25T07:18:40;97125.44;;;19.39;53.93
6094;BME280;19964;42.060;24.700;2023-03-25T07:21:07;97133.56;;;19.70;48.52
6094;BME280;19964;42.060;24.700;2023-03-25T07:23:33;97128.88;;;19.21;48.13
6094;BME280;19964;42.060;24.700;2023-03-25T07:26:00;97119.22;;;19.03;48.34
6094;BME280;19964;42.060;24.700;2023-03-25T07:28:27;97129.31;;;19.28;46.69
6094;BME280;19964;42.060;24.700;2023-03-25T07:30:54;97124.78;;;18.27;48.69
6094;BME280;19964;42.060;24.700;2023-03-25T07:33:22;97131.38;;;17.59;48.74
6094;BME280;19964;42.060;24.700;2023-03-25T07:35:49;97124.72;;;18.32;47.54
6094;BME280;19964;42.060;24.700;2023-03-25T07:38:16;97068.69;;;18.42;47.93
6094;BME280;19964;42.060;24.700;2023-03-25T07:40:42;97120.41;;;17.99;49.40
6094;BME280;19964;42.060;24.700;2023-03-25T07:43:09;97107.63;;;17.45;49.93
6094;BME280;19964;42.060;24.700;2023-03-25T07:45:36;97125.53;;;18.51;49.30
6094;BME280;19964;42.060;24.700;2023-03-25T07:48:03;97032.28;;;18.73;46.05
6094;BME280;19964;42.060;24.700;2023-03-25T07:50:31;97122.97;;;18.65;46.25
6094;BME280;19964;42.060;24.700;2023-03-25T07:52:57;97099.94;;;18.20;47.28
6094;BME280;19964;42.060;24.700;2023-03-25T07:55:24;97119.75;;;18.31;46.75
6094;BME280;19964;42.060;24.700;2023-03-25T07:57:51;97080.00;;;18.42;46.54
6094;BME280;19964;42.060;24.700;2023-03-25T08:00:18;97101.91;;;18.70;46.73
6094;BME280;19964;42.060;24.700;2023-03-25T08:02:45;97102.75;;;18.65;47.82
6094;BME280;19964;42.060;24.700;2023-03-25T08:05:12;97109.47;;;19.04;46.92
6094;BME280;19964;42.060;24.700;2023-03-25T08:07:41;97104.75;;;19.19;46.25
6094;BME280;19964;42.060;24.700;2023-03-25T08:10:09;97105.66;;;18.45;47.64
6094;BME280;19964;42.060;24.700;2023-03-25T08:12:39;97100.41;;;18.64;47.82
6094;BME280;19964;42.060;24.700;2023-03-25T08:15:07;97090.06;;;18.54;47.67
6094;BME280;19964;42.060;24.700;2023-03-25T08:17:34;97093.31;;;19.29;46.26
6094;BME280;19964;42.060;24.700;2023-03-25T08:20:01;97096.50;;;18.61;46.86
6094;BME280;19964;42.060;24.700;2023-03-25T08:22:29;97085.56;;;18.92;47.59
6094;BME280;19964;42.060;24.700;2023-03-25T08:24:57;97097.78;;;19.28;45.85
6094;BME280;19964;42.060;24.700;2023-03-25T08:27:24;97107.56;;;19.41;46.78
6094;BME280;19964;42.060;24.700;2023-03-25T08:29:51;97103.53;;;18.98;46.67
6094;BME280;19964;42.060;24.700;2023-03-25T08:32:22;97105.31;;;19.48;45.31
6094;BME280;19964;42.060;24.700;2023-03-25T08:34:50;97116.09;;;19.33;45.47
6094;BME280;19964;42.060;24.700;2023-03-25T08:37:17;97112.81;;;19.69;47.04
6094;BME280;19964;42.060;24.700;2023-03-25T08:39:44;97108.25;;;19.61;47.59
6094;BME280;19964;42.060;24.700;2023-03-25T08:42:16;97106.78;;;20.09;44.92
6094;BME280;19964;42.060;24.700;2023-03-25T08:44:43;97109.63;;;19.58;45.23
6094;BME280;19964;42.060;24.700;2023-03-25T08:47:11;97090.19;;;19.13;46.12
6094;BME280;19964;42.060;24.700;2023-03-25T08:49:37;97097.50;;;20.11;45.63
6094;BME280;19964;42.060;24.700;2023-03-25T08:52:04;97091.09;;;20.53;44.29
6094;BME280;19964;42.060;24.700;2023-03-25T08:54:33;97023.44;;;20.18;43.34
6094;BME280;19964;42.060;24.700;2023-03-25T08:56:59;97087.19;;;20.95;42.69
6094;BME280;19964;42.060;24.700;2023-03-25T08:59:27;97078.38;;;20.91;44.25
6094;BME280;19964;42.060;24.700;2023-03-25T09:01:55;97079.28;;;20.01;44.50
6094;BME280;19964;42.060;24.700;2023-03-25T09:04:21;97068.72;;;19.79;46.68
6094;BME280;19964;42.060;24.700;2023-03-25T09:06:48;97066.31;;;20.32;45.04
6094;BME280;19964;42.060;24.700;2023-03-25T09:09:15;97046.66;;;20.52;45.35
6094;BME280;19964;42.060;24.700;2023-03-25T09:11:43;96857.56;;;19.92;44.53
6094;BME280;19964;42.060;24.700;2023-03-25T09:14:09;97054.69;;;20.99;43.26
6094;BME280;19964;42.060;24.700;2023-03-25T09:16:38;97048.53;;;21.35;44.88
6094;BME280;19964;42.060;24.700;2023-03-25T09:19:05;97046.38;;;21.37;44.48
6094;BME280;19964;42.060;24.700;2023-03-25T09:21:32;97036.66;;;21.54;43.13
6094;BME280;19964;42.060;24.700;2023-03-25T09:23:59;97027.47;;;20.82;43.91
6094;BME280;19964;42.060;24.700;2023-03-25T09:26:26;97027.75;;;21.33;44.01
6094;BME280;19964;42.060;24.700;2023-03-25T09:28:53;97025.25;;;20.97;43.95
6094;BME280;19964;42.060;24.700;2023-03-25T09:31:20;97025.63;;;22.00;44.71
6094;BME280;19964;42.060;24.700;2023-03-25T09:33:49;97025.06;;;21.64;43.69
6094;BME280;19964;42.060;24.700;2023-03-25T09:36:15;97021.47;;;21.51;43.87
6094;BME280;19964;42.060;24.700;2023-03-25T09:38:42;97017.25;;;21.98;46.75
6094;BME280;19964;42.060;24.700;2023-03-25T09:41:24;97014.59;;;21.98;42.76
6094;BME280;19964;42.060;24.700;2023-03-25T09:43:59;96996.75;;;21.95;42.19
6094;BME280;19964;42.060;24.700;2023-03-25T09:46:29;97020.50;;;22.38;42.46
6094;BME280;19964;42.060;24.700;2023-03-25T09:48:58;97018.03;;;22.16;41.66
6094;BME280;19964;42.060;24.700;2023-03-25T09:51:27;97011.03;;;22.02;42.93
6094;BME280;19964;42.060;24.700;2023-03-25T09:53:58;97010.72;;;22.12;41.56
6094;BME280;19964;42.060;24.700;2023-03-25T09:56:29;96999.22;;;22.43;43.34
6094;BME280;19964;42.060;24.700;2023-03-25T09:58:59;96995.97;;;21.38;43.00
6094;BME280;19964;42.060;24.700;2023-03-25T10:01:34;96990.06;;;22.06;44.88
6094;BME280;19964;42.060;24.700;2023-03-25T10:04:30;96979.22;;;22.33;42.07
6094;BME280;19964;42.060;24.700;2023-03-25T10:07:10;96980.22;;;22.83;42.39
6094;BME280;19964;42.060;24.700;2023-03-25T10:09:46;96986.66;;;22.23;42.03
6094;BME280;19964;42.060;24.700;2023-03-25T10:12:27;96976.75;;;22.20;43.84
6094;BME280;19964;42.060;24.700;2023-03-25T10:15:04;96973.34;;;22.02;42.22
6094;BME280;19964;42.060;24.700;2023-03-25T10:17:38;96962.72;;;22.28;41.18
6094;BME280;19964;42.060;24.700;2023-03-25T10:20:15;96961.69;;;22.92;41.57
6094;BME280;19964;42.060;24.700;2023-03-25T10:22:55;96960.88;;;23.38;39.85
6094;BME280;19964;42.060;24.700;2023-03-25T10:25:26;96947.84;;;23.82;39.08
6094;BME280;19964;42.060;24.700;2023-03-25T10:27:55;96944.03;;;23.92;39.18
6094;BME280;19964;42.060;24.700;2023-03-25T10:30:24;96936.66;;;23.98;39.02
6094;BME280;19964;42.060;24.700;2023-03-25T10:32:55;96932.13;;;23.28;39.76
6094;BME280;19964;42.060;24.700;2023-03-25T10:35:27;96917.81;;;22.62;40.45
6094;BME280;19964;42.060;24.700;2023-03-25T10:37:57;96927.44;;;22.49;40.11
6094;BME280;19964;42.060;24.700;2023-03-25T10:40:27;96922.56;;;23.15;38.32
6094;BME280;19964;42.060;24.700;2023-03-25T10:43:06;96911.50;;;23.71;42.45
6094;BME280;19964;42.060;24.700;2023-03-25T10:45:40;96909.84;;;24.52;39.60
6094;BME280;19964;42.060;24.700;2023-03-25T10:48:11;96889.69;;;23.95;37.74
6094;BME280;19964;42.060;24.700;2023-03-25T10:50:40;96912.09;;;24.30;38.24
6094;BME280;19964;42.060;24.700;2023-03-25T10:53:16;96901.34;;;23.94;39.15
6094;BME280;19964;42.060;24.700;2023-03-25T10:55:48;96910.19;;;23.36;38.61
6094;BME280;19964;42.060;24.700;2023-03-25T10:58:18;96905.03;;;23.39;39.22
6094;BME280;19964;42.060;24.700;2023-03-25T11:00:44;96890.41;;;23.42;37.87
6094;BME280;19964;42.060;24.700;2023-03-25T11:03:14;96900.47;;;23.69;38.38
6094;BME280;19964;42.060;24.700;2023-03-25T11:05:45;96893.63;;;23.88;38.41
6094;BME280;19964;42.060;24.700;2023-03-25T11:08:13;96896.84;;;23.24;38.69
6094;BME280;19964;42.060;24.700;2023-03-25T11:10:46;96887.03;;;23.74;38.68
6094;BME280;19964;42.060;24.700;2023-03-25T11:13:15;96887.47;;;23.35;38.85
6094;BME280;19964;42.060;24.700;2023-03-25T11:15:46;96810.72;;;23.23;39.59
6094;BME280;19964;42.060;24.700;2023-03-25T11:18:19;96840.91;;;22.92;39.23
6094;BME280;19964;42.060;24.700;2023-03-25T11:20:51;96870.59;;;23.48;39.62
6094;BME280;19964;42.060;24.700;2023-03-25T11:23:24;96858.63;;;22.92;37.86
6094;BME280;19964;42.060;24.700;2023-03-25T11:25:53;96857.53;;;22.55;39.06
6094;BME280;19964;42.060;24.700;2023-03-25T11:28:30;96760.78;;;22.59;41.45
6094;BME280;19964;42.060;24.700;2023-03-25T11:31:12;96856.41;;;23.32;37.28
6094;BME280;19964;42.060;24.700;2023-03-25T11:33:40;96844.16;;;22.98;37.74
6094;BME280;19964;42.060;24.700;2023-03-25T11:36:21;96842.09;;;23.33;38.02
6094;BME280;19964;42.060;24.700;2023-03-25T11:38:55;96837.28;;;24.21;37.78
6094;BME280;19964;42.060;24.700;2023-03-25T11:41:26;96843.81;;;24.35;37.13
6094;BME280;19964;42.060;24.700;2023-03-25T11:43:53;96808.72;;;24.38;37.60
6094;BME280;19964;42.060;24.700;2023-03-25T11:46:21;96824.41;;;24.43;37.25
6094;BME280;19964;42.060;24.700;2023-03-25T11:48:48;96805.88;;;24.43;37.12
6094;BME280;19964;42.060;24.700;2023-03-25T11:51:20;96808.03;;;24.17;36.69
6094;BME280;19964;42.060;24.700;2023-03-25T11:53:55;96802.91;;;24.00;38.01
6094;BME280;19964;42.060;24.700;2023-03-25T11:56:27;96799.81;;;23.65;37.58
6094;BME280;19964;42.060;24.700;2023-03-25T11:58:57;96796.78;;;23.75;38.02
6094;BME280;19964;42.060;24.700;2023-03-25T12:01:28;96794.81;;;23.52;36.85
6094;BME280;19964;42.060;24.700;2023-03-25T12:04:07;96776.59;;;23.38;36.82
6094;BME280;19964;42.060;24.700;2023-03-25T12:06:51;96788.81;;;23.63;37.04
6094;BME280;19964;42.060;24.700;2023-03-25T12:09:19;96778.09;;;23.19;38.07
6094;BME280;19964;42.060;24.700;2023-03-25T12:12:02;96753.28;;;22.90;37.37
6094;BME280;19964;42.060;24.700;2023-03-25T12:14:38;96757.66;;;22.86;38.40
6094;BME280;19964;42.060;24.700;2023-03-25T12:17:17;96762.91;;;22.66;37.58
6094;BME280;19964;42.060;24.700;2023-03-25T12:19:53;96762.88;;;23.16;37.83
6094;BME280;19964;42.060;24.700;2023-03-25T12:22:40;96746.31;;;23.07;39.07
6094;BME280;19964;42.060;24.700;2023-03-25T12:25:22;96761.16;;;22.99;38.67
6094;BME280;19964;42.060;24.700;2023-03-25T12:30:53;96762.03;;;22.82;38.84
6094;BME280;19964;42.060;24.700;2023-03-25T12:33:32;96751.75;;;22.89;38.25
6094;BME280;19964;42.060;24.700;2023-03-25T12:36:18;96725.72;;;22.50;38.53
6094;BME280;19964;42.060;24.700;2023-03-25T12:38:57;96752.72;;;22.47;39.71
6094;BME280;19964;42.060;24.700;2023-03-25T12:41:31;96717.69;;;22.09;40.91
6094;BME280;19964;42.060;24.700;2023-03-25T12:44:05;96648.97;;;21.97;39.55
6094;BME280;19964;42.060;24.700;2023-03-25T12:47:03;96737.53;;;22.44;40.19
6094;BME280;19964;42.060;24.700;2023-03-25T12:49:44;96737.88;;;22.43;40.22
6094;BME280;19964;42.060;24.700;2023-03-25T12:52:19;96715.53;;;22.32;40.34
6094;BME280;19964;42.060;24.700;2023-03-25T12:55:11;96728.94;;;22.27;40.20
6094;BME280;19964;42.060;24.700;2023-03-25T12:57:54;96719.63;;;22.29;40.26
6094;BME280;19964;42.060;24.700;2023-03-25T13:00:35;96714.81;;;22.52;40.58
6094;BME280;19964;42.060;24.700;2023-03-25T13:03:40;96703.66;;;22.75;39.88
6094;BME280;19964;42.060;24.700;2023-03-25T13:06:18;96711.84;;;22.62;39.32
6094;BME280;19964;42.060;24.700;2023-03-25T13:08:51;96711.09;;;22.53;39.78
6094;BME280;19964;42.060;24.700;2023-03-25T13:11:26;96624.84;;;21.86;40.49
6094;BME280;19964;42.060;24.700;2023-03-25T13:13:59;96688.88;;;22.25;40.54
6094;BME280;19964;42.060;24.700;2023-03-25T13:16:32;96706.94;;;22.43;40.15
6094;BME280;19964;42.060;24.700;2023-03-25T13:19:05;96699.03;;;22.43;40.17
6094;BME280;19964;42.060;24.700;2023-03-25T13:21:36;96692.53;;;22.41;40.60
6094;BME280;19964;42.060;24.700;2023-03-25T13:24:08;96686.75;;;22.18;40.35
6094;BME280;19964;42.060;24.700;2023-03-25T13:26:42;96683.59;;;21.95;40.92
6094;BME280;19964;42.060;24.700;2023-03-25T13:29:20;96659.06;;;21.95;41.02
6094;BME280;19964;42.060;24.700;2023-03-25T13:31:51;96677.91;;;22.14;40.94